Here is the Quick Look data you requested

The Data originates at the National Weather Service, and is made available here by the UAlbany Department of Atmospheric and Environmental Sciences

Surface Observations

KNUI 241153Z AUTO 00000KT 10SM CLR 18/14 A2982 RMK AO2 SLP096 T01830144 10200
 20156 53016=
KNUI 241253Z AUTO 27003KT 10SM CLR 21/14 A2983 RMK AO2 SLP101 T02060144
KNUI 241253Z AUTO 27003KT 10SM CLR 21/14 A2983 RMK AO2 SLP101 T02060144=
KNUI 241353Z AUTO 32007KT 290V360 10SM CLR 23/14 A2984 RMK AO2 SLP103 T02280144
KNUI 241353Z AUTO 32007KT 290V360 10SM CLR 23/14 A2984 RMK AO2 SLP103 T02280144=
KNUI 241453Z AUTO 04005KT 10SM CLR 24/15 A2985 RMK AO2 SLP107 T02390150 51011
KNUI 241453Z AUTO 04005KT 10SM CLR 24/15 A2985 RMK AO2 SLP107 T02390150 51011=
KNUI 241553Z AUTO VRB04KT 10SM FEW042 22/13 A2985 RMK AO2 SLP107 T02220133
KNUI 241553Z AUTO VRB04KT 10SM FEW042 22/13 A2985 RMK AO2 SLP107 T02220133=
KNUI 241653Z AUTO 29006KT 10SM CLR 23/13 A2984 RMK AO2 SLP105 T02330133
KNUI 241653Z AUTO 29006KT 10SM CLR 23/13 A2984 RMK AO2 SLP105 T02330133=
KNUI 241753Z AUTO 24009KT 10SM CLR 22/13 A2984 RMK AO2 SLP103 T02220133 10239
 20183 58004
KNUI 241753Z AUTO 24009KT 10SM CLR 22/13 A2984 RMK AO2 SLP103 T02220133 10239
 20183 58004=
KNUI 241853Z AUTO 28007KT 10SM CLR 22/13 A2984 RMK AO2 SLP104 T02220133
KNUI 241853Z AUTO 28007KT 10SM CLR 22/13 A2984 RMK AO2 SLP104 T02220133=
KNUI 241953Z AUTO VRB03KT 10SM CLR 23/14 A2982 RMK AO2 SLP096 T02330139
KNUI 241953Z AUTO VRB03KT 10SM CLR 23/14 A2982 RMK AO2 SLP096 T02330139=
KNUI 242053Z AUTO 24006KT 10SM CLR 23/14 A2983 RMK AO2 SLP100 T02330139 55004
KNUI 242053Z AUTO 24006KT 10SM CLR 23/14 A2983 RMK AO2 SLP100 T02330139 55004=
KNUI 242153Z AUTO 29007KT 10SM CLR 23/12 A2983 RMK AO2 SLP102 T02330117
KNUI 242153Z AUTO 29007KT 10SM CLR 23/12 A2983 RMK AO2 SLP102 T02330117=
KNUI 242253Z AUTO 00000KT 10SM CLR 22/14 A2983 RMK AO2 SLP101 T02170139
KNUI 242253Z AUTO 00000KT 10SM CLR 22/14 A2983 RMK AO2 SLP101 T02170139=
KNUI 242353Z AUTO 00000KT 10SM CLR 18/13 A2984 RMK AO2 SLP105 T01780133 10239
 20178 53005
KNUI 242353Z AUTO 00000KT 10SM CLR 18/13 A2984 RMK AO2 SLP105 T01780133 10239
 20178 53005=
KNUI 250053Z AUTO 04003KT 10SM CLR 16/13 A2985 RMK AO2 SLP108 T01560128
KNUI 250053Z AUTO 04003KT 10SM CLR 16/13 A2985 RMK AO2 SLP108 T01560128=
KNUI 250153Z AUTO 00000KT 10SM BKN070 15/13 A2987 RMK AO2 SLP113 T01500133
KNUI 250153Z AUTO 00000KT 10SM BKN070 15/13 A2987 RMK AO2 SLP113 T01500133=
KNUI 250253Z AUTO 00000KT 10SM FEW065 FEW090 14/12 A2987 RMK AO2 SLP115
 T01440122 51010
KNUI 250253Z AUTO 00000KT 10SM FEW065 FEW090 14/12 A2987 RMK AO2 SLP115
 T01440122 51010=
KNUI 250353Z AUTO 00000KT 10SM FEW070 SCT085 14/12 A2989 RMK AO2 SLP120
 T01440122
KNUI 250353Z AUTO 00000KT 10SM FEW070 SCT085 14/12 A2989 RMK AO2 SLP120
 T01440122=
KNUI 250453Z AUTO 00000KT 10SM BKN065 14/13 A2989 RMK AO2 SLP121 T01440128
 402390139
KNUI 250453Z AUTO 00000KT 10SM BKN065 14/13 A2989 RMK AO2 SLP121 T01440128
 402390139=
KNUI 250553Z AUTO 00000KT 10SM FEW070 BKN085 BKN100 14/13 A2988 RMK AO2 SLP118
 T01390128 10178 20139 50003
KNUI 250553Z AUTO 00000KT 10SM FEW070 BKN085 BKN100 14/13 A2988 RMK AO2 SLP118
 T01390128 10178 20139 50003=
KNUI 250653Z AUTO 00000KT 10SM FEW110 14/13 A2987 RMK AO2 SLP115 T01440133
KNUI 250653Z AUTO 00000KT 10SM FEW110 14/13 A2987 RMK AO2 SLP115 T01440133=
KNUI 250753Z AUTO 00000KT 10SM FEW100 BKN120 15/13 A2987 RMK AO2 SLP113
 T01500128
KNUI 250753Z AUTO 00000KT 10SM FEW100 BKN120 15/13 A2987 RMK AO2 SLP113
 T01500128=
KNUI 250853Z AUTO 01003KT 10SM BKN090 OVC110 16/12 A2987 RMK AO2 SLP116
 T01560122 55003
KNUI 250853Z AUTO 01003KT 10SM BKN090 OVC110 16/12 A2987 RMK AO2 SLP116
 T01560122 55003=
KNUI 250953Z AUTO 02004KT 10SM SCT100 16/12 A2987 RMK AO2 SLP115 T01560122
KNUI 250953Z AUTO 02004KT 10SM SCT100 16/12 A2987 RMK AO2 SLP115 T01560122=
KNUI 251053Z AUTO 05005KT 10SM SCT100 15/14 A2990 RMK AO2 SLP123 T01500139
KNUI 251053Z AUTO 05005KT 10SM SCT100 15/14 A2990 RMK AO2 SLP123 T01500139=
KNUI 251153Z AUTO 07004KT 10SM SCT060 17/16 A2991 RMK AO2 SLP128 T01720156
 10172 20139 53012
KNUI 251153Z AUTO 07004KT 10SM SCT060 17/16 A2991 RMK AO2 SLP128 T01720156
 10172 20139 53012=
KNUI 251253Z AUTO 07006KT 10SM SCT060 19/13 A2990 RMK AO2 SLP123 T01940128
KNUI 251253Z AUTO 07006KT 10SM SCT060 19/13 A2990 RMK AO2 SLP123 T01940128=
KNUI 251353Z AUTO 05005KT 10SM FEW060 21/13 A2990 RMK AO2 SLP126 T02060128
KNUI 251353Z AUTO 05005KT 10SM FEW060 21/13 A2990 RMK AO2 SLP126 T02060128=
KNUI 251453Z AUTO 07007KT 10SM CLR 21/10 A2991 RMK AO2 SLP127 T02060100 55000
KNUI 251453Z AUTO 07007KT 10SM CLR 21/10 A2991 RMK AO2 SLP127 T02060100 55000=
KNUI 251553Z AUTO 10004KT 10SM CLR 21/11 A2990 RMK AO2 SLP124 T02060106
KNUI 251553Z AUTO 10004KT 10SM CLR 21/11 A2990 RMK AO2 SLP124 T02060106=
KNUI 251653Z AUTO 05004KT 10SM FEW120 21/12 A2988 RMK AO2 SLP116 T02060117
KNUI 251653Z AUTO 05004KT 10SM FEW120 21/12 A2988 RMK AO2 SLP116 T02060117=
KNUI 251753Z AUTO 05008KT 10SM CLR 22/12 A2986 RMK AO2 SLP110 T02170122 10217
 20172 58017
KNUI 251753Z AUTO 05008KT 10SM CLR 22/12 A2986 RMK AO2 SLP110 T02170122 10217
 20172 58017=